createdAt,value
2022-12-01T00:00:00.958Z,7.3
2022-12-01T00:01:00.961Z,7.4
2022-12-01T00:02:01.031Z,7.4
2022-12-01T00:03:01.080Z,7.5
2022-12-01T00:04:00.959Z,7.4
2022-12-01T00:05:00.956Z,7.5
2022-12-01T00:06:00.954Z,7.4
2022-12-01T00:07:00.955Z,7.5
2022-12-01T00:08:00.992Z,7.4
2022-12-01T00:09:00.951Z,7.4
2022-12-01T00:10:00.958Z,7.6
2022-12-01T00:11:00.955Z,7.3
2022-12-01T00:12:00.970Z,7.4
2022-12-01T00:13:00.957Z,7.4
2022-12-01T00:14:00.963Z,7.5
2022-12-01T00:15:01.044Z,7.5
2022-12-01T00:16:01.015Z,7.3
2022-12-01T00:17:00.995Z,7.4
2022-12-01T00:18:00.959Z,7.5
2022-12-01T00:19:00.958Z,7.4
2022-12-01T00:20:00.959Z,7.5
2022-12-01T00:21:00.968Z,7.4
2022-12-01T00:22:00.967Z,7.5
2022-12-01T00:23:00.963Z,7.2
2022-12-01T00:24:00.956Z,7.4
2022-12-01T00:25:00.965Z,7.2
2022-12-01T00:26:00.970Z,7.2
2022-12-01T00:27:00.964Z,7.3
2022-12-01T00:28:00.955Z,7.3
2022-12-01T00:29:00.970Z,7.6
2022-12-01T00:30:00.957Z,7.7
2022-12-01T00:31:00.962Z,7.6
2022-12-01T00:32:01.138Z,7.3
2022-12-01T00:33:00.955Z,7.4
2022-12-01T00:34:00.959Z,7.5
2022-12-01T00:35:00.954Z,7.4
2022-12-01T00:36:00.956Z,7.4
2022-12-01T00:37:01.027Z,7.4
2022-12-01T00:38:00.961Z,7.4
2022-12-01T00:39:00.961Z,7.4
2022-12-01T00:40:00.972Z,7.4
2022-12-01T00:41:00.959Z,7.4
2022-12-01T00:42:00.969Z,7.6
2022-12-01T00:43:00.992Z,7.6
2022-12-01T00:44:00.967Z,7.5
2022-12-01T00:45:00.958Z,7.4
2022-12-01T00:46:01.007Z,7.5
2022-12-01T00:48:01.073Z,7.5
2022-12-01T00:49:00.967Z,7.3
2022-12-01T00:50:00.968Z,7.5
2022-12-01T00:51:00.964Z,7.6
2022-12-01T00:53:00.959Z,7.5
2022-12-01T00:54:00.965Z,7.5
2022-12-01T00:55:00.962Z,7.5
2022-12-01T00:56:00.973Z,7.5
2022-12-01T00:57:00.964Z,7.4
2022-12-01T00:58:00.956Z,7.4
2022-12-01T00:59:00.964Z,7.4
2022-12-01T01:00:01.013Z,7.4
2022-12-01T01:01:01.279Z,7.5
2022-12-01T01:02:01.070Z,7.5
2022-12-01T01:03:00.960Z,7.3
2022-12-01T01:04:00.965Z,7.5
2022-12-01T01:05:00.965Z,7.7
2022-12-01T01:06:00.958Z,7.5
2022-12-01T01:07:00.962Z,7.6
2022-12-01T01:08:01.024Z,7.6
2022-12-01T01:09:00.956Z,7.7
2022-12-01T01:10:00.967Z,7.5
2022-12-01T01:11:00.969Z,7.5
2022-12-01T01:12:00.961Z,7.4
2022-12-01T01:13:00.961Z,7.5
2022-12-01T01:14:00.963Z,7.5
2022-12-01T01:15:00.959Z,7.2
2022-12-01T01:16:01.025Z,7.3
2022-12-01T01:17:01.040Z,7.5
2022-12-01T01:18:00.980Z,7.4
2022-12-01T01:19:00.982Z,7.4
2022-12-01T01:20:00.970Z,7.3
2022-12-01T01:21:00.961Z,7.3
2022-12-01T01:22:00.964Z,7.3
2022-12-01T01:23:00.964Z,7.2
2022-12-01T01:24:00.965Z,7.3
2022-12-01T01:25:00.966Z,7.4
2022-12-01T01:26:00.973Z,7.2
2022-12-01T01:27:01.048Z,7.4
2022-12-01T01:28:00.960Z,7.3
2022-12-01T01:29:00.965Z,7.2
2022-12-01T01:30:00.967Z,7.2
2022-12-01T01:31:01.008Z,7.3
2022-12-01T01:32:00.963Z,7.2
2022-12-01T01:33:00.960Z,7.2
2022-12-01T01:34:00.975Z,7.2
2022-12-01T01:35:00.968Z,7.1
2022-12-01T01:36:00.972Z,7.2
2022-12-01T01:37:00.961Z,7.4
2022-12-01T01:38:00.962Z,7.5
2022-12-01T01:39:00.965Z,7.3
2022-12-01T01:40:00.962Z,7.2
2022-12-01T01:41:00.972Z,7.4
2022-12-01T01:42:00.954Z,7.4
2022-12-01T01:43:00.967Z,7.5
2022-12-01T01:44:00.963Z,7.6
2022-12-01T01:45:00.957Z,7.4
2022-12-01T01:46:01.031Z,7.4
2022-12-01T01:47:00.973Z,7.2
2022-12-01T01:48:00.975Z,7.3
2022-12-01T01:49:00.960Z,7.4
2022-12-01T01:50:00.998Z,7.5
2022-12-01T01:51:00.966Z,7.4
2022-12-01T01:52:00.963Z,7.4
2022-12-01T01:53:01.041Z,7.5
2022-12-01T01:54:01.019Z,7.4
2022-12-01T01:55:00.960Z,7.4
2022-12-01T01:56:00.973Z,7.5
2022-12-01T01:57:00.962Z,7.4
2022-12-01T01:58:00.965Z,7.3
2022-12-01T01:59:00.954Z,7.3
2022-12-01T02:00:00.969Z,7.4
2022-12-01T02:01:01.013Z,7.4
2022-12-01T02:02:01.021Z,7.5
2022-12-01T02:03:01.033Z,7.4
2022-12-01T02:04:00.977Z,7.5
2022-12-01T02:05:00.978Z,7.4
2022-12-01T02:06:04.839Z,7.5
2022-12-01T02:07:00.968Z,7.5
2022-12-01T02:08:01.047Z,7.5
2022-12-01T02:09:00.964Z,7.4
2022-12-01T02:10:00.964Z,7.5
2022-12-01T02:11:00.954Z,7.4
2022-12-01T02:12:00.965Z,7.3
2022-12-01T02:13:00.962Z,7.5
2022-12-01T02:14:00.968Z,7.7
2022-12-01T02:15:00.964Z,7.5
2022-12-01T02:16:00.959Z,7.4
2022-12-01T02:17:01.044Z,7.4
2022-12-01T02:18:00.954Z,7.4
2022-12-01T02:19:00.959Z,7.3
2022-12-01T02:20:00.964Z,7.3
2022-12-01T02:21:01.049Z,7.6
2022-12-01T02:22:00.961Z,7.7
2022-12-01T02:23:00.965Z,7.6
2022-12-01T02:24:00.959Z,7.5
2022-12-01T02:25:00.963Z,7.5
2022-12-01T02:27:00.958Z,7.4
2022-12-01T02:28:00.959Z,7.6
2022-12-01T02:29:00.959Z,7.7
2022-12-01T02:30:00.963Z,7.7
2022-12-01T02:31:01.032Z,7.6
2022-12-01T02:32:01.055Z,7.4
2022-12-01T02:33:00.963Z,7.2
2022-12-01T02:34:00.967Z,7.3
2022-12-01T02:35:00.967Z,7.3
2022-12-01T02:36:00.965Z,7.2
2022-12-01T02:37:00.968Z,7.3
2022-12-01T02:38:00.967Z,7.4
2022-12-01T02:39:00.963Z,7.2
2022-12-01T02:40:00.956Z,7.2
2022-12-01T02:41:00.966Z,7.3
2022-12-01T02:42:00.966Z,7.3
2022-12-01T02:43:01.033Z,7.3
2022-12-01T02:44:00.964Z,7.3
2022-12-01T02:45:00.968Z,7.4
2022-12-01T02:46:01.026Z,7.3
2022-12-01T02:47:00.961Z,7.3
2022-12-01T02:48:00.958Z,7.3
2022-12-01T02:49:00.971Z,7.3
2022-12-01T02:50:00.966Z,7.4
2022-12-01T02:51:00.972Z,7.5
2022-12-01T02:52:00.993Z,7.4
2022-12-01T02:53:00.963Z,7.4
2022-12-01T02:54:00.955Z,7.5
2022-12-01T02:55:00.957Z,7.3
2022-12-01T02:56:01.020Z,7.3
2022-12-01T02:57:00.964Z,7.4
2022-12-01T02:58:00.962Z,7.4
2022-12-01T02:59:00.966Z,7.3
2022-12-01T03:00:00.976Z,7.5
2022-12-01T03:01:00.999Z,7.3
2022-12-01T03:02:02.235Z,7.4
2022-12-01T03:03:01.010Z,7.5
2022-12-01T03:04:00.963Z,7.3
2022-12-01T03:05:00.970Z,7.4
2022-12-01T03:06:00.969Z,7.5
2022-12-01T03:07:00.968Z,7.4
2022-12-01T03:08:01.134Z,7.4
2022-12-01T03:09:00.957Z,7.4
2022-12-01T03:10:00.974Z,7.5
2022-12-01T03:11:01.038Z,7.4
2022-12-01T03:12:00.955Z,7.4
2022-12-01T03:13:00.978Z,7.3
2022-12-01T03:14:00.964Z,7.5
2022-12-01T03:15:00.956Z,7.7
2022-12-01T03:16:01.037Z,7.6
2022-12-01T03:17:00.962Z,7.6
2022-12-01T03:18:00.970Z,7.4
2022-12-01T03:19:00.963Z,7.4
2022-12-01T03:20:00.967Z,7.4
2022-12-01T03:21:00.964Z,7.3
2022-12-01T03:22:00.971Z,7.3
2022-12-01T03:23:00.996Z,7.4
2022-12-01T03:24:00.966Z,7.4
2022-12-01T03:25:00.983Z,7.5
2022-12-01T03:26:00.959Z,7.4
2022-12-01T03:27:00.969Z,7.5
2022-12-01T03:28:20.589Z,7.5
2022-12-01T03:29:00.965Z,7.2
2022-12-01T03:30:00.962Z,7.3
2022-12-01T03:31:00.968Z,7.2
2022-12-01T03:32:01.056Z,7.1
2022-12-01T03:33:00.964Z,7
2022-12-01T03:34:00.968Z,7.2
2022-12-01T03:35:01.029Z,7.4
2022-12-01T03:36:00.968Z,7.4
2022-12-01T03:37:00.970Z,7.3
2022-12-01T03:38:00.962Z,7.4
2022-12-01T03:39:00.970Z,7.6
2022-12-01T03:40:01.483Z,7.6
2022-12-01T03:41:00.960Z,7.6
2022-12-01T03:42:00.971Z,7.7
2022-12-01T03:43:00.965Z,7.6
2022-12-01T03:44:00.963Z,7.7
2022-12-01T03:45:00.958Z,7.6
2022-12-01T03:46:01.060Z,7.4
2022-12-01T03:47:00.963Z,7.4
2022-12-01T03:48:00.968Z,7.7
2022-12-01T03:49:00.958Z,7.7
2022-12-01T03:50:01.055Z,7.6
2022-12-01T03:51:00.959Z,7.7
2022-12-01T03:52:00.967Z,7.6
2022-12-01T03:53:00.960Z,7.8
2022-12-01T03:54:00.991Z,7.7
2022-12-01T03:55:01.029Z,7.5
2022-12-01T03:56:01.026Z,7.5
2022-12-01T03:57:01.025Z,7.7
2022-12-01T03:58:01.032Z,7.7
2022-12-01T03:59:01.025Z,7.8
2022-12-01T04:00:01.030Z,7.7
2022-12-01T04:01:01.024Z,7.7
2022-12-01T04:03:01.096Z,7.6
2022-12-01T04:04:01.059Z,7.7
2022-12-01T04:05:01.016Z,7.8
2022-12-01T04:06:01.064Z,7.6
2022-12-01T04:07:01.022Z,7.6
2022-12-01T04:08:01.123Z,7.5
2022-12-01T04:09:01.020Z,7.5
2022-12-01T04:10:01.037Z,7.7
2022-12-01T04:11:01.156Z,7.6
2022-12-01T04:12:01.025Z,7.5
2022-12-01T04:13:01.031Z,7.4
2022-12-01T04:14:01.028Z,7.4
2022-12-01T04:15:01.035Z,7.5
2022-12-01T04:16:01.064Z,7.5
2022-12-01T04:17:01.020Z,7.6
2022-12-01T04:18:01.025Z,7.6
2022-12-01T04:19:01.031Z,7.7
2022-12-01T04:20:01.022Z,7.5
2022-12-01T04:21:01.027Z,7.5
2022-12-01T04:22:01.027Z,7.6
2022-12-01T04:23:01.025Z,7.3
2022-12-01T04:24:01.019Z,7.5
2022-12-01T04:25:01.053Z,7.8
2022-12-01T04:26:01.019Z,7.7
2022-12-01T04:27:01.026Z,7.7
2022-12-01T04:28:01.029Z,7.7
2022-12-01T04:29:01.038Z,7.7
2022-12-01T04:30:01.018Z,7.6
2022-12-01T04:31:01.440Z,7.6
2022-12-01T04:32:01.019Z,7.6
2022-12-01T04:33:01.026Z,7.7
2022-12-01T04:34:01.026Z,7.3
2022-12-01T04:35:01.032Z,7.2
2022-12-01T04:36:01.022Z,7.5
2022-12-01T04:37:01.020Z,7.4
2022-12-01T04:38:01.030Z,7.6
2022-12-01T04:39:01.028Z,7.4
2022-12-01T04:40:01.019Z,7.4
2022-12-01T04:41:01.025Z,7.4
2022-12-01T04:42:01.023Z,7.5
2022-12-01T04:43:01.023Z,7.5
2022-12-01T04:44:01.028Z,7.4
2022-12-01T04:45:01.022Z,7.5
2022-12-01T04:46:01.023Z,7.5
2022-12-01T04:47:01.136Z,7.7
2022-12-01T04:48:01.023Z,7.7
2022-12-01T04:49:01.040Z,7.7
2022-12-01T04:50:01.044Z,7.5
2022-12-01T04:51:01.157Z,7.6
2022-12-01T04:52:01.026Z,7.6
2022-12-01T04:53:01.033Z,7.6
2022-12-01T04:54:01.416Z,7.6
2022-12-01T04:55:01.033Z,7.5
2022-12-01T04:56:01.069Z,7.4
2022-12-01T04:57:01.035Z,7.5
2022-12-01T04:58:01.030Z,7.5
2022-12-01T04:59:01.027Z,7.5
2022-12-01T05:00:01.026Z,7.5
2022-12-01T05:01:01.215Z,7.5
2022-12-01T05:01:55.708Z,7.3
2022-12-01T05:04:01.025Z,7.5
2022-12-01T05:05:01.026Z,7.6
2022-12-01T05:06:01.073Z,7.5
2022-12-01T05:08:01.128Z,7.7
2022-12-01T05:09:01.026Z,7.4
2022-12-01T05:10:01.029Z,7.5
2022-12-01T05:11:01.045Z,7.5
2022-12-01T05:12:01.022Z,7.6
2022-12-01T05:13:01.029Z,7.6
2022-12-01T05:14:01.030Z,7.6
2022-12-01T05:15:01.030Z,7.7
2022-12-01T05:16:01.213Z,7.8
2022-12-01T05:17:01.031Z,7.9
2022-12-01T05:18:01.039Z,7.9
2022-12-01T05:19:01.163Z,7.9
2022-12-01T05:20:01.028Z,7.8
2022-12-01T05:21:01.027Z,7.8
2022-12-01T05:22:01.027Z,7.8
2022-12-01T05:23:05.692Z,7.8
2022-12-01T05:24:01.026Z,7.8
2022-12-01T05:25:01.030Z,7.6
2022-12-01T05:26:01.028Z,7.5
2022-12-01T05:27:01.046Z,7.7
2022-12-01T05:28:01.039Z,7.7
2022-12-01T05:29:01.026Z,7.4
2022-12-01T05:30:01.025Z,7.5
2022-12-01T05:31:01.248Z,7.6
2022-12-01T05:32:01.083Z,7.6
2022-12-01T05:33:01.028Z,7.5
2022-12-01T05:34:01.021Z,7.6
2022-12-01T05:35:01.025Z,7.7
2022-12-01T05:36:01.029Z,7.7
2022-12-01T05:37:01.037Z,7.6
2022-12-01T05:38:07.335Z,7.4
2022-12-01T05:39:01.036Z,7.2
2022-12-01T05:40:01.051Z,7.4
2022-12-01T05:41:01.031Z,7.4
2022-12-01T05:42:01.024Z,7.4
2022-12-01T05:43:01.027Z,7.5
2022-12-01T05:44:01.024Z,7.6
2022-12-01T05:45:01.034Z,7.7
2022-12-01T05:46:01.074Z,7.8
2022-12-01T05:47:01.034Z,7.6
2022-12-01T05:48:01.026Z,7.4
2022-12-01T05:49:01.022Z,7.4
2022-12-01T05:50:05.533Z,7.7
2022-12-01T05:51:01.035Z,7.8
2022-12-01T05:52:01.031Z,7.9
2022-12-01T05:53:01.031Z,7.7
2022-12-01T05:54:01.027Z,7.6
2022-12-01T05:55:01.037Z,7.7
2022-12-01T05:57:01.113Z,7.9
2022-12-01T05:58:01.056Z,7.7
2022-12-01T05:59:01.096Z,7.7
2022-12-01T06:00:01.026Z,7.7
2022-12-01T06:01:01.027Z,7.8
2022-12-01T06:02:01.087Z,7.8
2022-12-01T06:03:01.040Z,7.9
2022-12-01T06:04:01.068Z,7.8
2022-12-01T06:05:01.035Z,7.8
2022-12-01T06:06:01.031Z,7.7
2022-12-01T06:07:01.037Z,7.6
2022-12-01T06:08:01.139Z,7.6
2022-12-01T06:09:01.029Z,7.5
2022-12-01T06:10:01.036Z,7.5
2022-12-01T06:11:01.066Z,7.6
2022-12-01T06:12:01.050Z,7.6
2022-12-01T06:13:01.031Z,7.5
2022-12-01T06:14:01.035Z,7.4
2022-12-01T06:15:01.027Z,7.5
2022-12-01T06:16:01.032Z,7.5
2022-12-01T06:17:01.124Z,7.4
2022-12-01T06:18:01.045Z,7.5
2022-12-01T06:19:01.032Z,7.3
2022-12-01T06:20:01.036Z,7.4
2022-12-01T06:21:01.035Z,7.5
2022-12-01T06:22:01.038Z,7.4
2022-12-01T06:23:01.033Z,7.6
2022-12-01T06:24:01.028Z,7.6
2022-12-01T06:25:01.037Z,7.4
2022-12-01T06:26:01.033Z,7.6
2022-12-01T06:27:01.027Z,7.5
2022-12-01T06:28:01.037Z,7.3
2022-12-01T06:29:01.064Z,7.3
2022-12-01T06:30:01.033Z,7.2
2022-12-01T06:31:03.364Z,7.3
2022-12-01T06:32:01.113Z,7.3
2022-12-01T06:33:01.037Z,7.3
2022-12-01T06:34:01.036Z,7.3
2022-12-01T06:35:01.034Z,7.4
2022-12-01T06:36:01.035Z,7.3
2022-12-01T06:37:01.040Z,7.4
2022-12-01T06:38:01.037Z,7.2
2022-12-01T06:39:01.025Z,7.4
2022-12-01T06:40:01.039Z,7.3
2022-12-01T06:41:01.077Z,7.3
2022-12-01T06:42:01.037Z,7.4
2022-12-01T06:43:01.038Z,7.3
2022-12-01T06:44:01.034Z,7.2
2022-12-01T06:45:01.035Z,7.2
2022-12-01T06:46:02.287Z,7.3
2022-12-01T06:47:01.038Z,7.2
2022-12-01T06:48:01.031Z,7.2
2022-12-01T06:49:01.036Z,7.3
2022-12-01T06:50:01.034Z,7.2
2022-12-01T06:51:01.028Z,7.2
2022-12-01T06:52:01.260Z,7.4
2022-12-01T06:53:01.034Z,7.1
2022-12-01T06:54:05.500Z,7.1
2022-12-01T06:55:01.039Z,7.3
2022-12-01T06:56:01.025Z,7.4
2022-12-01T06:57:01.043Z,7.4
2022-12-01T06:58:01.041Z,7.3
2022-12-01T06:59:01.101Z,7.2
2022-12-01T07:00:01.061Z,7.1
2022-12-01T07:01:01.176Z,7.1
2022-12-01T07:02:01.173Z,7.1
2022-12-01T07:03:01.152Z,7.1
2022-12-01T07:04:01.050Z,7.2
2022-12-01T07:05:01.038Z,7.2
2022-12-01T07:06:01.051Z,7.2
2022-12-01T07:07:01.033Z,7
2022-12-01T07:08:01.189Z,7
2022-12-01T07:09:01.061Z,7
2022-12-01T07:10:01.038Z,7.1
2022-12-01T07:11:01.072Z,6.9
2022-12-01T07:12:01.031Z,6.9
2022-12-01T07:13:01.050Z,6.9
2022-12-01T07:14:01.036Z,7.1
2022-12-01T07:15:01.032Z,7.1
2022-12-01T07:16:01.033Z,7.2
2022-12-01T07:17:01.060Z,7.3
2022-12-01T07:18:01.038Z,7.3
2022-12-01T07:19:01.055Z,7.3
2022-12-01T07:20:01.031Z,7.2
2022-12-01T07:21:01.037Z,7.3
2022-12-01T07:22:01.030Z,7.2
2022-12-01T07:23:01.035Z,7.3
2022-12-01T07:24:01.025Z,7.1
2022-12-01T07:25:01.069Z,7
2022-12-01T07:26:01.029Z,7
2022-12-01T07:27:01.029Z,7
2022-12-01T07:28:01.028Z,7
2022-12-01T07:29:01.039Z,7
2022-12-01T07:30:01.044Z,7.2
2022-12-01T07:31:01.125Z,7
2022-12-01T07:32:01.035Z,7.1
2022-12-01T07:33:01.025Z,7.2
2022-12-01T07:34:01.036Z,7.3
2022-12-01T07:35:01.104Z,7.3
2022-12-01T07:36:01.030Z,7.4
2022-12-01T07:37:01.032Z,7.1
2022-12-01T07:38:01.027Z,7.3
2022-12-01T07:39:01.038Z,7.2
2022-12-01T07:40:01.040Z,7.2
2022-12-01T07:41:01.034Z,7.3
2022-12-01T07:42:01.039Z,7.2
2022-12-01T07:43:01.036Z,7.2
2022-12-01T07:44:01.034Z,7.3
2022-12-01T07:45:01.034Z,7.3
2022-12-01T07:46:01.156Z,7.2
2022-12-01T07:47:01.034Z,7.2
2022-12-01T07:48:01.036Z,7.3
2022-12-01T07:49:01.033Z,7.1
2022-12-01T07:50:01.032Z,7.3
2022-12-01T07:51:01.039Z,7.1
2022-12-01T07:52:01.039Z,7.1
2022-12-01T07:53:01.102Z,7.2
2022-12-01T07:54:01.034Z,7.3
2022-12-01T07:55:01.037Z,7.2
2022-12-01T07:56:04.361Z,7.3
2022-12-01T07:57:01.037Z,7.3
2022-12-01T07:58:01.041Z,7.2
2022-12-01T07:59:01.033Z,7.4
2022-12-01T08:00:01.042Z,7.4
2022-12-01T08:01:01.229Z,7.3
2022-12-01T08:02:01.333Z,7.3
2022-12-01T08:03:01.150Z,7.2
2022-12-01T08:04:01.036Z,7.1
2022-12-01T08:05:01.097Z,7.1
2022-12-01T08:06:01.037Z,7.2
2022-12-01T08:07:01.038Z,7.3
2022-12-01T08:08:01.133Z,7.3
2022-12-01T08:09:01.038Z,7.2
2022-12-01T08:10:01.031Z,7.2
2022-12-01T08:11:01.040Z,7.3
2022-12-01T08:12:01.116Z,7.4
2022-12-01T08:13:01.041Z,7.2
2022-12-01T08:14:01.031Z,7.4
2022-12-01T08:15:01.037Z,7.3
2022-12-01T08:16:01.095Z,7.2
2022-12-01T08:17:01.109Z,7.1
2022-12-01T08:18:01.029Z,7
2022-12-01T08:19:01.041Z,7.1
2022-12-01T08:20:01.038Z,7.1
2022-12-01T08:21:01.052Z,7.3
2022-12-01T08:22:01.056Z,7.3
2022-12-01T08:23:01.032Z,7.3
2022-12-01T08:24:01.037Z,7.2
2022-12-01T08:25:01.046Z,7.2
2022-12-01T08:26:01.040Z,7.2
2022-12-01T08:27:01.036Z,7.2
2022-12-01T08:28:01.029Z,7.2
2022-12-01T08:29:01.033Z,7.2
2022-12-01T08:30:01.037Z,7.3
2022-12-01T08:31:01.057Z,7.3
2022-12-01T08:32:01.071Z,7.3
2022-12-01T08:33:01.065Z,7.2
2022-12-01T08:34:01.032Z,7.3
2022-12-01T08:35:01.034Z,7.1
2022-12-01T08:36:01.030Z,7
2022-12-01T08:37:01.054Z,7.2
2022-12-01T08:38:01.029Z,7.2
2022-12-01T08:39:01.029Z,7.4
2022-12-01T08:40:01.036Z,7.5
2022-12-01T08:41:01.037Z,7.6
2022-12-01T08:42:01.036Z,7.6
2022-12-01T08:43:01.036Z,7.3
2022-12-01T08:44:01.558Z,7.2
2022-12-01T08:45:01.108Z,7.2
2022-12-01T08:46:01.076Z,7.2
2022-12-01T08:47:01.069Z,7.3
2022-12-01T08:48:01.032Z,7.2
2022-12-01T08:49:01.041Z,7.3
2022-12-01T08:50:01.035Z,7.3
2022-12-01T08:51:01.038Z,7.5
2022-12-01T08:52:01.033Z,7.4
2022-12-01T08:53:01.039Z,7.1
2022-12-01T08:54:01.035Z,7.2
2022-12-01T08:55:01.039Z,7.4
2022-12-01T08:56:01.031Z,7.2
2022-12-01T08:57:01.029Z,7.1
2022-12-01T08:58:01.033Z,7.2
2022-12-01T08:59:01.037Z,7.2
2022-12-01T09:00:01.029Z,7.3
2022-12-01T09:01:01.033Z,7.2
2022-12-01T09:02:06.640Z,7.3
2022-12-01T09:03:01.141Z,7.4
2022-12-01T09:04:01.069Z,7.3
2022-12-01T09:05:01.032Z,7.3
2022-12-01T09:06:01.053Z,7.5
2022-12-01T09:07:01.040Z,7.3
2022-12-01T09:08:01.187Z,7.4
2022-12-01T09:09:01.033Z,7.3
2022-12-01T09:10:01.035Z,7.4
2022-12-01T09:11:01.034Z,7.3
2022-12-01T09:12:01.035Z,7.5
2022-12-01T09:13:01.036Z,7.3
2022-12-01T09:14:01.036Z,7.4
2022-12-01T09:15:01.041Z,7.4
2022-12-01T09:16:01.075Z,7.2
2022-12-01T09:17:01.041Z,7.2
2022-12-01T09:18:01.202Z,7.3
2022-12-01T09:19:01.030Z,7.3
2022-12-01T09:20:01.037Z,7.2
2022-12-01T09:21:01.038Z,7.1
2022-12-01T09:22:01.098Z,7.2
2022-12-01T09:23:01.030Z,7.2
2022-12-01T09:24:01.051Z,7.3
2022-12-01T09:25:01.030Z,7.3
2022-12-01T09:26:01.041Z,7.4
2022-12-01T09:27:01.032Z,7.4
2022-12-01T09:28:01.024Z,7.2
2022-12-01T09:29:01.035Z,7.3
2022-12-01T09:30:01.038Z,7.2
2022-12-01T09:31:01.069Z,7.1
2022-12-01T09:32:01.043Z,7.2
2022-12-01T09:33:01.039Z,7.1
2022-12-01T09:34:01.044Z,7.2
2022-12-01T09:35:01.068Z,7.1
2022-12-01T09:36:01.038Z,7
2022-12-01T09:37:01.041Z,7.1
2022-12-01T09:38:01.030Z,7.1
2022-12-01T09:39:01.062Z,7.3
2022-12-01T09:40:01.037Z,7.5
2022-12-01T09:41:01.042Z,7.4
2022-12-01T09:42:03.903Z,7.3
2022-12-01T09:43:01.027Z,7.3
2022-12-01T09:44:01.032Z,7.3
2022-12-01T09:45:01.036Z,7.2
2022-12-01T09:46:01.039Z,7
2022-12-01T09:47:01.079Z,7.1
2022-12-01T09:48:01.034Z,7.1
2022-12-01T09:49:01.038Z,7.1
2022-12-01T09:50:01.036Z,7.2
2022-12-01T09:51:01.040Z,7.1
2022-12-01T09:52:01.130Z,7.1
2022-12-01T09:53:01.039Z,7.2
2022-12-01T09:54:01.042Z,7.3
2022-12-01T09:55:01.047Z,7.4
2022-12-01T09:56:07.178Z,7.4
2022-12-01T09:57:01.034Z,7
2022-12-01T09:58:01.039Z,7
2022-12-01T09:59:01.044Z,7.1
2022-12-01T10:00:01.041Z,7
2022-12-01T10:01:01.090Z,7.1
2022-12-01T10:02:01.079Z,7
2022-12-01T10:03:01.037Z,6.8
2022-12-01T10:04:01.036Z,6.9
2022-12-01T10:05:01.103Z,7
2022-12-01T10:07:01.053Z,7
2022-12-01T10:08:01.098Z,7
2022-12-01T10:09:01.100Z,7
2022-12-01T10:10:01.045Z,7
2022-12-01T10:11:02.038Z,6.8
2022-12-01T10:12:01.037Z,6.8
2022-12-01T10:13:01.047Z,6.8
2022-12-01T10:14:01.072Z,6.9
2022-12-01T10:15:01.038Z,6.9
2022-12-01T10:16:01.057Z,6.7
2022-12-01T10:17:01.053Z,6.7
2022-12-01T10:18:01.033Z,6.9
2022-12-01T10:19:01.039Z,6.9
2022-12-01T10:20:01.053Z,6.9
2022-12-01T10:21:01.039Z,6.9
2022-12-01T10:22:01.036Z,7
2022-12-01T10:23:01.037Z,6.8
2022-12-01T10:24:01.034Z,6.8
2022-12-01T10:25:01.039Z,6.7
2022-12-01T10:26:01.044Z,6.8
2022-12-01T10:27:01.041Z,6.9
2022-12-01T10:28:01.042Z,6.9
2022-12-01T10:29:01.060Z,6.9
2022-12-01T10:30:01.064Z,7.1
2022-12-01T10:31:01.066Z,7
2022-12-01T10:32:01.083Z,7
2022-12-01T10:33:01.035Z,7
2022-12-01T10:34:01.038Z,7
2022-12-01T10:35:01.036Z,7
2022-12-01T10:36:01.109Z,7
2022-12-01T10:37:01.087Z,7
2022-12-01T10:38:01.229Z,7
2022-12-01T10:39:01.034Z,6.9
2022-12-01T10:40:01.042Z,7
2022-12-01T10:41:01.106Z,7
2022-12-01T10:42:01.035Z,6.9
2022-12-01T10:43:01.034Z,7
2022-12-01T10:44:01.043Z,6.9
2022-12-01T10:45:01.033Z,6.9
2022-12-01T10:46:01.100Z,7
2022-12-01T10:47:01.031Z,6.9
2022-12-01T10:48:01.031Z,7.1
2022-12-01T10:49:01.073Z,7.1
2022-12-01T10:50:01.059Z,7
2022-12-01T10:51:01.045Z,6.9
2022-12-01T10:52:01.033Z,6.8
2022-12-01T10:53:01.036Z,6.8
2022-12-01T10:54:01.035Z,7
2022-12-01T10:55:01.038Z,6.9
2022-12-01T10:56:01.104Z,7.1
2022-12-01T10:57:01.035Z,7
2022-12-01T10:58:06.164Z,7.1
2022-12-01T10:59:01.048Z,7.2
2022-12-01T11:00:01.046Z,7
2022-12-01T11:01:01.484Z,6.9
2022-12-01T11:02:01.219Z,7.1
2022-12-01T11:03:01.240Z,7
2022-12-01T11:04:01.106Z,7.1
2022-12-01T11:05:01.038Z,6.9
2022-12-01T11:06:01.030Z,7.2
2022-12-01T11:07:01.035Z,7
2022-12-01T11:08:01.139Z,7
2022-12-01T11:09:01.052Z,7.1
2022-12-01T11:10:01.048Z,7
2022-12-01T11:11:01.060Z,7.2
2022-12-01T11:12:01.042Z,7.1
2022-12-01T11:13:01.033Z,7
2022-12-01T11:14:01.044Z,7.1
2022-12-01T11:15:01.043Z,7
2022-12-01T11:16:01.045Z,7.1
2022-12-01T11:17:01.142Z,7.3
2022-12-01T11:18:01.035Z,7.2
2022-12-01T11:19:01.148Z,7.3
2022-12-01T11:20:01.141Z,7.4
2022-12-01T11:21:01.031Z,7.4
2022-12-01T11:22:01.039Z,7.3
2022-12-01T11:23:02.125Z,7.3
2022-12-01T11:24:01.061Z,7.2
2022-12-01T11:25:01.039Z,7.4
2022-12-01T11:26:01.040Z,7.4
2022-12-01T11:27:01.031Z,7.6
2022-12-01T11:28:01.074Z,7.5
2022-12-01T11:29:01.060Z,7.5
2022-12-01T11:30:01.040Z,7.5
2022-12-01T11:31:01.033Z,7.4
2022-12-01T11:32:01.108Z,7.5
2022-12-01T11:33:02.019Z,7.6
2022-12-01T11:34:01.035Z,7.6
2022-12-01T11:35:01.053Z,7.6
2022-12-01T11:36:01.028Z,7.5
2022-12-01T11:37:01.045Z,7.5
2022-12-01T11:38:28.233Z,7.5
2022-12-01T11:39:01.061Z,7.6
2022-12-01T11:40:01.036Z,7.5
2022-12-01T11:41:01.046Z,7.5
2022-12-01T11:42:01.043Z,7.7
2022-12-01T11:43:01.041Z,7.6
2022-12-01T11:44:02.072Z,7.6
2022-12-01T11:45:01.040Z,7.6
2022-12-01T11:46:01.162Z,7.7
2022-12-01T11:47:22.038Z,7.6
2022-12-01T11:48:01.048Z,7.6
2022-12-01T11:49:01.033Z,7.4
2022-12-01T11:50:01.040Z,7.6
2022-12-01T11:51:01.044Z,7.4
2022-12-01T11:52:01.042Z,7.4
2022-12-01T11:53:01.038Z,7.4
2022-12-01T11:54:01.041Z,7.5
2022-12-01T11:55:05.579Z,7.7
2022-12-01T11:56:01.041Z,7.7
2022-12-01T11:57:32.477Z,7.6
2022-12-01T11:58:01.107Z,7.5
2022-12-01T11:59:01.062Z,7.5
2022-12-01T12:00:01.046Z,7.5
2022-12-01T12:01:01.039Z,7.5
2022-12-01T12:02:01.096Z,7.6
2022-12-01T12:03:01.162Z,7.6
2022-12-01T12:04:01.037Z,7.8
2022-12-01T12:06:18.208Z,7.7
2022-12-01T12:07:01.039Z,7.6
2022-12-01T12:08:01.127Z,7.7
2022-12-01T12:09:01.099Z,7.8
2022-12-01T12:10:01.070Z,7.7
2022-12-01T12:11:01.094Z,7.5
2022-12-01T12:12:01.042Z,7.4
2022-12-01T12:13:01.050Z,7.7
2022-12-01T12:14:01.041Z,7.6
2022-12-01T12:15:01.104Z,7.6
2022-12-01T12:16:01.037Z,7.5
2022-12-01T12:17:01.035Z,7.6
2022-12-01T12:18:01.134Z,7.6
2022-12-01T12:19:01.042Z,7.6
2022-12-01T12:20:09.464Z,7.5
2022-12-01T12:21:01.042Z,7.6
2022-12-01T12:22:01.049Z,7.6
2022-12-01T12:24:01.030Z,7.6
2022-12-01T12:25:01.040Z,7.6
2022-12-01T12:26:01.037Z,7.7
2022-12-01T12:27:01.088Z,7.6
2022-12-01T12:28:01.046Z,7.5
2022-12-01T12:29:01.036Z,7.6
2022-12-01T12:30:01.043Z,7.7
2022-12-01T12:31:01.071Z,7.6
2022-12-01T12:32:01.037Z,7.7
2022-12-01T12:33:01.046Z,7.4
2022-12-01T12:34:01.039Z,7.6
2022-12-01T12:35:01.045Z,7.7
2022-12-01T12:36:01.058Z,7.7
2022-12-01T12:37:01.102Z,7.8
2022-12-01T12:38:01.068Z,7.7
2022-12-01T12:39:01.038Z,7.9
2022-12-01T12:40:01.037Z,7.9
2022-12-01T12:41:01.067Z,7.9
2022-12-01T12:42:01.044Z,8
2022-12-01T12:43:01.058Z,8
2022-12-01T12:44:01.052Z,8
2022-12-01T12:45:01.036Z,8.1
2022-12-01T12:46:01.087Z,8
2022-12-01T12:47:01.048Z,7.9
2022-12-01T12:48:01.046Z,7.6
2022-12-01T12:49:19.319Z,7.8
2022-12-01T12:50:01.036Z,7.8
2022-12-01T12:51:01.049Z,7.9
2022-12-01T12:52:07.823Z,7.8
2022-12-01T12:53:01.044Z,7.8
2022-12-01T12:54:01.152Z,7.8
2022-12-01T12:55:01.038Z,7.7
2022-12-01T12:56:01.050Z,7.8
2022-12-01T12:57:01.103Z,7.8
2022-12-01T12:58:02.034Z,7.9
2022-12-01T12:59:01.046Z,8
2022-12-01T13:00:01.055Z,7.8
2022-12-01T13:01:01.042Z,7.7
2022-12-01T13:02:01.093Z,7.8
2022-12-01T13:03:01.110Z,8
2022-12-01T13:04:01.051Z,7.9
2022-12-01T13:05:01.041Z,7.8
2022-12-01T13:06:01.060Z,7.6
2022-12-01T13:07:01.040Z,7.7
2022-12-01T13:08:01.076Z,7.8
2022-12-01T13:09:01.044Z,7.7
2022-12-01T13:10:01.216Z,7.8
2022-12-01T13:11:01.042Z,7.9
2022-12-01T13:12:01.068Z,8.1
2022-12-01T13:13:01.041Z,8.1
2022-12-01T13:14:01.042Z,8
2022-12-01T13:15:01.559Z,8.1
2022-12-01T13:16:01.183Z,8
2022-12-01T13:17:01.066Z,8
2022-12-01T13:18:01.056Z,7.9
2022-12-01T13:19:01.041Z,8
2022-12-01T13:20:01.049Z,8
2022-12-01T13:21:01.037Z,7.9
2022-12-01T13:22:01.155Z,7.7
2022-12-01T13:22:55.604Z,7.8
2022-12-01T13:24:01.046Z,7.7
2022-12-01T13:25:01.040Z,7.9
2022-12-01T13:26:01.034Z,7.7
2022-12-01T13:27:01.035Z,7.8
2022-12-01T13:28:01.035Z,7.9
2022-12-01T13:29:01.055Z,7.9
2022-12-01T13:30:01.039Z,7.8
2022-12-01T13:31:01.100Z,7.8
2022-12-01T13:32:01.043Z,7.7
2022-12-01T13:33:01.039Z,7.5
2022-12-01T13:34:01.104Z,7.8
2022-12-01T13:35:01.046Z,7.8
2022-12-01T13:36:38.107Z,7.7
2022-12-01T13:37:01.067Z,7.6
2022-12-01T13:38:01.037Z,7.9
2022-12-01T13:39:01.042Z,7.9
2022-12-01T13:40:01.045Z,7.8
2022-12-01T13:41:01.045Z,7.7
2022-12-01T13:42:01.046Z,7.6
2022-12-01T13:43:05.505Z,7.7
2022-12-01T13:44:01.044Z,7.6
2022-12-01T13:45:01.060Z,7.8
2022-12-01T13:46:01.039Z,7.8
2022-12-01T13:47:01.103Z,7.8
2022-12-01T13:48:01.044Z,7.9
2022-12-01T13:49:01.044Z,7.9
2022-12-01T13:50:01.044Z,7.7
2022-12-01T13:51:01.053Z,7.7
2022-12-01T13:52:01.043Z,7.6
2022-12-01T13:53:01.045Z,7.6
2022-12-01T13:54:01.036Z,7.5
2022-12-01T13:55:01.037Z,7.7
2022-12-01T13:56:01.047Z,7.9
2022-12-01T13:57:01.037Z,7.7
2022-12-01T13:58:01.041Z,7.7
2022-12-01T13:59:01.039Z,7.7